sensor_id;sensor_type;location;lat;lon;timestamp;P1;durP1;ratioP1;P2;durP2;ratioP2
72053;SDS011;59918;51.280;7.950;2024-02-16T00:00:02;2.13;;;1.00;;
72053;SDS011;59918;51.280;7.950;2024-02-16T00:02:27;2.25;;;1.17;;
72053;SDS011;59918;51.280;7.950;2024-02-16T00:04:52;0.85;;;0.68;;
72053;SDS011;59918;51.280;7.950;2024-02-16T00:07:18;3.42;;;1.00;;
72053;SDS011;59918;51.280;7.950;2024-02-16T00:09:43;3.10;;;1.17;;
72053;SDS011;59918;51.280;7.950;2024-02-16T00:12:08;1.17;;;0.98;;
72053;SDS011;59918;51.280;7.950;2024-02-16T00:14:33;3.08;;;0.82;;
72053;SDS011;59918;51.280;7.950;2024-02-16T00:16:59;3.38;;;1.17;;
72053;SDS011;59918;51.280;7.950;2024-02-16T00:19:24;6.03;;;1.60;;
72053;SDS011;59918;51.280;7.950;2024-02-16T00:21:50;2.00;;;1.30;;
72053;SDS011;59918;51.280;7.950;2024-02-16T00:24:15;2.58;;;1.02;;
72053;SDS011;59918;51.280;7.950;2024-02-16T00:26:41;1.67;;;1.00;;
72053;SDS011;59918;51.280;7.950;2024-02-16T00:29:06;4.43;;;1.20;;
72053;SDS011;59918;51.280;7.950;2024-02-16T00:31:31;2.80;;;1.20;;
72053;SDS011;59918;51.280;7.950;2024-02-16T00:33:56;2.10;;;1.15;;
72053;SDS011;59918;51.280;7.950;2024-02-16T00:36:22;1.52;;;1.13;;
72053;SDS011;59918;51.280;7.950;2024-02-16T00:38:47;2.55;;;1.02;;
72053;SDS011;59918;51.280;7.950;2024-02-16T00:41:19;3.30;;;1.02;;
72053;SDS011;59918;51.280;7.950;2024-02-16T00:43:45;1.90;;;1.15;;
72053;SDS011;59918;51.280;7.950;2024-02-16T00:46:10;3.45;;;1.38;;
72053;SDS011;59918;51.280;7.950;2024-02-16T00:48:38;2.50;;;1.45;;
72053;SDS011;59918;51.280;7.950;2024-02-16T00:51:04;3.92;;;1.20;;
72053;SDS011;59918;51.280;7.950;2024-02-16T00:53:32;4.50;;;1.40;;
72053;SDS011;59918;51.280;7.950;2024-02-16T00:55:57;3.05;;;1.25;;
72053;SDS011;59918;51.280;7.950;2024-02-16T00:58:22;4.28;;;1.15;;
72053;SDS011;59918;51.280;7.950;2024-02-16T01:00:48;5.72;;;1.55;;
72053;SDS011;59918;51.280;7.950;2024-02-16T01:03:13;5.10;;;1.20;;
72053;SDS011;59918;51.280;7.950;2024-02-16T01:05:39;3.47;;;1.35;;
72053;SDS011;59918;51.280;7.950;2024-02-16T01:08:04;3.03;;;1.00;;
72053;SDS011;59918;51.280;7.950;2024-02-16T01:10:30;2.47;;;1.05;;
72053;SDS011;59918;51.280;7.950;2024-02-16T01:12:55;2.42;;;1.23;;
72053;SDS011;59918;51.280;7.950;2024-02-16T01:15:22;2.22;;;1.15;;
72053;SDS011;59918;51.280;7.950;2024-02-16T01:17:48;2.50;;;1.08;;
72053;SDS011;59918;51.280;7.950;2024-02-16T01:20:13;1.60;;;1.23;;
72053;SDS011;59918;51.280;7.950;2024-02-16T01:22:40;2.75;;;1.05;;
72053;SDS011;59918;51.280;7.950;2024-02-16T01:25:06;1.98;;;1.13;;
72053;SDS011;59918;51.280;7.950;2024-02-16T01:27:33;2.40;;;0.90;;
72053;SDS011;59918;51.280;7.950;2024-02-16T01:29:58;4.05;;;1.15;;
72053;SDS011;59918;51.280;7.950;2024-02-16T01:32:23;1.27;;;1.02;;
72053;SDS011;59918;51.280;7.950;2024-02-16T01:34:48;2.25;;;1.00;;
72053;SDS011;59918;51.280;7.950;2024-02-16T01:37:14;2.15;;;1.10;;
72053;SDS011;59918;51.280;7.950;2024-02-16T01:39:39;1.70;;;1.10;;
72053;SDS011;59918;51.280;7.950;2024-02-16T01:42:04;1.80;;;1.10;;
72053;SDS011;59918;51.280;7.950;2024-02-16T01:44:29;2.15;;;1.40;;
72053;SDS011;59918;51.280;7.950;2024-02-16T01:46:55;2.25;;;1.25;;
72053;SDS011;59918;51.280;7.950;2024-02-16T01:49:20;2.72;;;1.38;;
72053;SDS011;59918;51.280;7.950;2024-02-16T01:51:45;3.42;;;1.33;;
72053;SDS011;59918;51.280;7.950;2024-02-16T01:54:11;5.47;;;1.10;;
72053;SDS011;59918;51.280;7.950;2024-02-16T01:56:37;1.90;;;1.30;;
72053;SDS011;59918;51.280;7.950;2024-02-16T01:59:02;3.60;;;1.10;;
72053;SDS011;59918;51.280;7.950;2024-02-16T02:01:27;3.67;;;1.10;;
72053;SDS011;59918;51.280;7.950;2024-02-16T02:03:53;6.80;;;1.85;;
72053;SDS011;59918;51.280;7.950;2024-02-16T02:06:18;1.58;;;1.00;;
72053;SDS011;59918;51.280;7.950;2024-02-16T02:08:43;4.35;;;1.55;;
72053;SDS011;59918;51.280;7.950;2024-02-16T02:11:08;2.33;;;1.23;;
72053;SDS011;59918;51.280;7.950;2024-02-16T02:13:34;1.77;;;1.30;;
72053;SDS011;59918;51.280;7.950;2024-02-16T02:15:59;2.10;;;1.00;;
72053;SDS011;59918;51.280;7.950;2024-02-16T02:18:27;2.78;;;1.52;;
72053;SDS011;59918;51.280;7.950;2024-02-16T02:20:52;3.75;;;1.55;;
72053;SDS011;59918;51.280;7.950;2024-02-16T02:23:17;2.05;;;1.35;;
72053;SDS011;59918;51.280;7.950;2024-02-16T02:25:43;2.25;;;1.20;;
72053;SDS011;59918;51.280;7.950;2024-02-16T02:28:08;2.65;;;1.60;;
72053;SDS011;59918;51.280;7.950;2024-02-16T02:30:33;3.10;;;1.30;;
72053;SDS011;59918;51.280;7.950;2024-02-16T02:32:59;3.15;;;1.40;;
72053;SDS011;59918;51.280;7.950;2024-02-16T02:35:24;2.65;;;1.13;;
72053;SDS011;59918;51.280;7.950;2024-02-16T02:37:49;4.15;;;1.27;;
72053;SDS011;59918;51.280;7.950;2024-02-16T02:40:14;2.38;;;1.40;;
72053;SDS011;59918;51.280;7.950;2024-02-16T02:42:40;1.95;;;1.40;;
72053;SDS011;59918;51.280;7.950;2024-02-16T02:45:05;3.85;;;1.42;;
72053;SDS011;59918;51.280;7.950;2024-02-16T02:47:31;3.70;;;1.40;;
72053;SDS011;59918;51.280;7.950;2024-02-16T02:49:56;3.13;;;1.67;;
72053;SDS011;59918;51.280;7.950;2024-02-16T02:52:21;2.72;;;1.05;;
72053;SDS011;59918;51.280;7.950;2024-02-16T02:54:47;5.40;;;1.30;;
72053;SDS011;59918;51.280;7.950;2024-02-16T02:57:13;4.00;;;1.13;;
72053;SDS011;59918;51.280;7.950;2024-02-16T02:59:38;1.95;;;1.60;;
72053;SDS011;59918;51.280;7.950;2024-02-16T03:02:03;1.55;;;1.20;;
72053;SDS011;59918;51.280;7.950;2024-02-16T03:04:29;2.30;;;1.38;;
72053;SDS011;59918;51.280;7.950;2024-02-16T03:06:54;3.67;;;1.67;;
72053;SDS011;59918;51.280;7.950;2024-02-16T03:09:19;3.00;;;1.65;;
72053;SDS011;59918;51.280;7.950;2024-02-16T03:11:44;3.28;;;1.17;;
72053;SDS011;59918;51.280;7.950;2024-02-16T03:14:10;1.38;;;1.23;;
72053;SDS011;59918;51.280;7.950;2024-02-16T03:16:35;1.90;;;1.20;;
72053;SDS011;59918;51.280;7.950;2024-02-16T03:19:00;3.30;;;1.23;;
72053;SDS011;59918;51.280;7.950;2024-02-16T03:21:25;2.42;;;1.58;;
72053;SDS011;59918;51.280;7.950;2024-02-16T03:23:51;2.35;;;1.40;;
72053;SDS011;59918;51.280;7.950;2024-02-16T03:26:16;1.98;;;1.70;;
72053;SDS011;59918;51.280;7.950;2024-02-16T03:28:43;1.90;;;1.30;;
72053;SDS011;59918;51.280;7.950;2024-02-16T03:31:14;3.03;;;0.98;;
72053;SDS011;59918;51.280;7.950;2024-02-16T03:33:49;3.97;;;1.38;;
72053;SDS011;59918;51.280;7.950;2024-02-16T03:36:15;2.85;;;1.17;;
72053;SDS011;59918;51.280;7.950;2024-02-16T03:38:41;1.70;;;1.10;;
72053;SDS011;59918;51.280;7.950;2024-02-16T03:41:07;2.65;;;1.45;;
72053;SDS011;59918;51.280;7.950;2024-02-16T03:43:32;1.67;;;1.23;;
72053;SDS011;59918;51.280;7.950;2024-02-16T03:45:57;2.15;;;1.20;;
72053;SDS011;59918;51.280;7.950;2024-02-16T03:48:23;2.47;;;1.23;;
72053;SDS011;59918;51.280;7.950;2024-02-16T03:50:48;3.40;;;1.20;;
72053;SDS011;59918;51.280;7.950;2024-02-16T03:53:13;3.25;;;1.38;;
72053;SDS011;59918;51.280;7.950;2024-02-16T03:55:38;1.23;;;1.10;;
72053;SDS011;59918;51.280;7.950;2024-02-16T03:58:04;3.40;;;1.30;;
72053;SDS011;59918;51.280;7.950;2024-02-16T04:00:31;2.95;;;1.60;;
72053;SDS011;59918;51.280;7.950;2024-02-16T04:02:57;2.92;;;1.42;;
72053;SDS011;59918;51.280;7.950;2024-02-16T04:05:22;3.95;;;1.80;;
72053;SDS011;59918;51.280;7.950;2024-02-16T04:07:47;3.03;;;1.15;;
72053;SDS011;59918;51.280;7.950;2024-02-16T04:10:12;3.22;;;1.48;;
72053;SDS011;59918;51.280;7.950;2024-02-16T04:12:40;5.30;;;1.10;;
72053;SDS011;59918;51.280;7.950;2024-02-16T04:15:05;2.65;;;1.25;;
72053;SDS011;59918;51.280;7.950;2024-02-16T04:17:30;2.30;;;1.90;;
72053;SDS011;59918;51.280;7.950;2024-02-16T04:19:56;2.53;;;1.30;;
72053;SDS011;59918;51.280;7.950;2024-02-16T04:22:21;3.15;;;1.50;;
72053;SDS011;59918;51.280;7.950;2024-02-16T04:24:46;3.83;;;1.50;;
72053;SDS011;59918;51.280;7.950;2024-02-16T04:27:11;2.42;;;1.40;;
72053;SDS011;59918;51.280;7.950;2024-02-16T04:29:37;3.50;;;1.50;;
72053;SDS011;59918;51.280;7.950;2024-02-16T04:32:02;3.22;;;1.67;;
72053;SDS011;59918;51.280;7.950;2024-02-16T04:34:27;2.22;;;1.50;;
72053;SDS011;59918;51.280;7.950;2024-02-16T04:36:52;3.65;;;1.70;;
72053;SDS011;59918;51.280;7.950;2024-02-16T04:39:18;2.33;;;1.20;;
72053;SDS011;59918;51.280;7.950;2024-02-16T04:41:43;1.80;;;1.42;;
72053;SDS011;59918;51.280;7.950;2024-02-16T04:44:08;2.53;;;2.33;;
72053;SDS011;59918;51.280;7.950;2024-02-16T04:46:33;4.88;;;1.67;;
72053;SDS011;59918;51.280;7.950;2024-02-16T04:48:59;3.22;;;1.65;;
72053;SDS011;59918;51.280;7.950;2024-02-16T04:51:24;3.67;;;1.73;;
72053;SDS011;59918;51.280;7.950;2024-02-16T04:53:49;1.83;;;1.33;;
72053;SDS011;59918;51.280;7.950;2024-02-16T04:56:14;6.85;;;1.65;;
72053;SDS011;59918;51.280;7.950;2024-02-16T04:58:43;4.75;;;1.80;;
72053;SDS011;59918;51.280;7.950;2024-02-16T05:01:08;2.78;;;1.20;;
72053;SDS011;59918;51.280;7.950;2024-02-16T05:03:33;3.13;;;1.70;;
72053;SDS011;59918;51.280;7.950;2024-02-16T05:05:59;2.03;;;1.30;;
72053;SDS011;59918;51.280;7.950;2024-02-16T05:08:25;3.15;;;1.60;;
72053;SDS011;59918;51.280;7.950;2024-02-16T05:10:50;3.08;;;1.70;;
72053;SDS011;59918;51.280;7.950;2024-02-16T05:13:16;4.00;;;1.70;;
72053;SDS011;59918;51.280;7.950;2024-02-16T05:15:41;3.00;;;1.70;;
72053;SDS011;59918;51.280;7.950;2024-02-16T05:18:06;3.78;;;1.63;;
72053;SDS011;59918;51.280;7.950;2024-02-16T05:20:31;4.85;;;1.60;;
72053;SDS011;59918;51.280;7.950;2024-02-16T05:22:57;5.20;;;1.70;;
72053;SDS011;59918;51.280;7.950;2024-02-16T05:25:22;5.85;;;1.83;;
72053;SDS011;59918;51.280;7.950;2024-02-16T05:27:47;3.25;;;1.50;;
72053;SDS011;59918;51.280;7.950;2024-02-16T05:30:12;1.58;;;1.40;;
72053;SDS011;59918;51.280;7.950;2024-02-16T05:32:38;2.60;;;1.45;;
72053;SDS011;59918;51.280;7.950;2024-02-16T05:35:04;3.17;;;1.52;;
72053;SDS011;59918;51.280;7.950;2024-02-16T05:37:30;2.72;;;1.73;;
72053;SDS011;59918;51.280;7.950;2024-02-16T05:39:55;1.77;;;1.65;;
72053;SDS011;59918;51.280;7.950;2024-02-16T05:42:20;4.50;;;2.03;;
72053;SDS011;59918;51.280;7.950;2024-02-16T05:44:46;3.22;;;1.63;;
72053;SDS011;59918;51.280;7.950;2024-02-16T05:47:11;2.30;;;1.65;;
72053;SDS011;59918;51.280;7.950;2024-02-16T05:49:36;2.70;;;1.63;;
72053;SDS011;59918;51.280;7.950;2024-02-16T05:52:01;4.47;;;2.10;;
72053;SDS011;59918;51.280;7.950;2024-02-16T05:54:27;3.50;;;1.75;;
72053;SDS011;59918;51.280;7.950;2024-02-16T05:56:52;2.78;;;1.80;;
72053;SDS011;59918;51.280;7.950;2024-02-16T05:59:17;4.10;;;1.70;;
72053;SDS011;59918;51.280;7.950;2024-02-16T06:01:43;2.75;;;1.60;;
72053;SDS011;59918;51.280;7.950;2024-02-16T06:04:08;3.55;;;1.88;;
72053;SDS011;59918;51.280;7.950;2024-02-16T06:06:35;2.47;;;1.80;;
72053;SDS011;59918;51.280;7.950;2024-02-16T06:09:00;3.25;;;1.50;;
72053;SDS011;59918;51.280;7.950;2024-02-16T06:11:26;4.35;;;2.38;;
72053;SDS011;59918;51.280;7.950;2024-02-16T06:13:51;1.80;;;1.58;;
72053;SDS011;59918;51.280;7.950;2024-02-16T06:16:16;3.53;;;1.63;;
72053;SDS011;59918;51.280;7.950;2024-02-16T06:18:42;2.42;;;1.60;;
72053;SDS011;59918;51.280;7.950;2024-02-16T06:21:07;2.50;;;1.95;;
72053;SDS011;59918;51.280;7.950;2024-02-16T06:23:32;2.20;;;1.88;;
72053;SDS011;59918;51.280;7.950;2024-02-16T06:25:57;2.88;;;1.70;;
72053;SDS011;59918;51.280;7.950;2024-02-16T06:28:22;2.58;;;2.08;;
72053;SDS011;59918;51.280;7.950;2024-02-16T06:30:48;2.20;;;1.58;;
72053;SDS011;59918;51.280;7.950;2024-02-16T06:33:13;7.75;;;2.05;;
72053;SDS011;59918;51.280;7.950;2024-02-16T06:35:38;6.55;;;2.13;;
72053;SDS011;59918;51.280;7.950;2024-02-16T06:38:03;2.63;;;1.50;;
72053;SDS011;59918;51.280;7.950;2024-02-16T06:40:29;5.75;;;2.00;;
72053;SDS011;59918;51.280;7.950;2024-02-16T06:42:54;3.35;;;2.05;;
72053;SDS011;59918;51.280;7.950;2024-02-16T06:45:19;4.80;;;1.90;;
72053;SDS011;59918;51.280;7.950;2024-02-16T06:47:44;5.90;;;2.03;;
72053;SDS011;59918;51.280;7.950;2024-02-16T06:50:10;3.65;;;1.98;;
72053;SDS011;59918;51.280;7.950;2024-02-16T06:52:35;2.38;;;1.90;;
72053;SDS011;59918;51.280;7.950;2024-02-16T06:55:00;4.13;;;1.80;;
72053;SDS011;59918;51.280;7.950;2024-02-16T06:57:25;5.40;;;1.55;;
72053;SDS011;59918;51.280;7.950;2024-02-16T06:59:51;3.35;;;2.15;;
72053;SDS011;59918;51.280;7.950;2024-02-16T07:02:16;5.57;;;2.10;;
72053;SDS011;59918;51.280;7.950;2024-02-16T07:04:41;5.00;;;1.60;;
72053;SDS011;59918;51.280;7.950;2024-02-16T07:07:06;3.35;;;1.95;;
72053;SDS011;59918;51.280;7.950;2024-02-16T07:09:32;5.25;;;2.00;;
72053;SDS011;59918;51.280;7.950;2024-02-16T07:11:57;2.92;;;2.00;;
72053;SDS011;59918;51.280;7.950;2024-02-16T07:14:22;5.75;;;2.22;;
72053;SDS011;59918;51.280;7.950;2024-02-16T07:16:48;3.33;;;2.05;;
72053;SDS011;59918;51.280;7.950;2024-02-16T07:19:13;2.38;;;1.92;;
72053;SDS011;59918;51.280;7.950;2024-02-16T07:21:38;3.30;;;1.92;;
72053;SDS011;59918;51.280;7.950;2024-02-16T07:24:03;4.20;;;2.10;;
72053;SDS011;59918;51.280;7.950;2024-02-16T07:26:29;3.33;;;1.70;;
72053;SDS011;59918;51.280;7.950;2024-02-16T07:28:54;2.15;;;1.90;;
72053;SDS011;59918;51.280;7.950;2024-02-16T07:31:19;1.90;;;1.70;;
72053;SDS011;59918;51.280;7.950;2024-02-16T07:33:45;2.22;;;1.85;;
72053;SDS011;59918;51.280;7.950;2024-02-16T07:36:10;2.45;;;1.73;;
72053;SDS011;59918;51.280;7.950;2024-02-16T07:38:35;3.10;;;1.70;;
72053;SDS011;59918;51.280;7.950;2024-02-16T07:41:00;2.00;;;1.60;;
72053;SDS011;59918;51.280;7.950;2024-02-16T07:43:26;2.80;;;1.85;;
72053;SDS011;59918;51.280;7.950;2024-02-16T07:45:52;2.47;;;2.03;;
72053;SDS011;59918;51.280;7.950;2024-02-16T07:48:17;3.33;;;2.00;;
72053;SDS011;59918;51.280;7.950;2024-02-16T07:50:42;5.55;;;2.08;;
72053;SDS011;59918;51.280;7.950;2024-02-16T07:53:08;2.53;;;1.83;;
72053;SDS011;59918;51.280;7.950;2024-02-16T07:55:33;2.47;;;2.00;;
72053;SDS011;59918;51.280;7.950;2024-02-16T07:57:58;3.13;;;2.05;;
72053;SDS011;59918;51.280;7.950;2024-02-16T08:00:24;3.55;;;1.95;;
72053;SDS011;59918;51.280;7.950;2024-02-16T08:02:49;5.28;;;1.67;;
72053;SDS011;59918;51.280;7.950;2024-02-16T08:05:15;4.00;;;2.10;;
72053;SDS011;59918;51.280;7.950;2024-02-16T08:07:40;4.22;;;2.10;;
72053;SDS011;59918;51.280;7.950;2024-02-16T08:10:06;2.92;;;2.10;;
72053;SDS011;59918;51.280;7.950;2024-02-16T08:12:31;5.10;;;2.15;;
72053;SDS011;59918;51.280;7.950;2024-02-16T08:14:57;2.55;;;2.15;;
72053;SDS011;59918;51.280;7.950;2024-02-16T08:17:22;3.03;;;2.00;;
72053;SDS011;59918;51.280;7.950;2024-02-16T08:19:56;4.55;;;2.20;;
72053;SDS011;59918;51.280;7.950;2024-02-16T08:22:21;4.03;;;2.03;;
72053;SDS011;59918;51.280;7.950;2024-02-16T08:24:48;6.60;;;2.40;;
72053;SDS011;59918;51.280;7.950;2024-02-16T08:27:13;2.67;;;1.90;;
72053;SDS011;59918;51.280;7.950;2024-02-16T08:29:39;5.20;;;2.78;;
72053;SDS011;59918;51.280;7.950;2024-02-16T08:32:04;2.40;;;1.90;;
72053;SDS011;59918;51.280;7.950;2024-02-16T08:34:29;2.72;;;1.92;;
72053;SDS011;59918;51.280;7.950;2024-02-16T08:36:55;3.22;;;2.30;;
72053;SDS011;59918;51.280;7.950;2024-02-16T08:39:20;11.07;;;2.53;;
72053;SDS011;59918;51.280;7.950;2024-02-16T08:41:45;2.97;;;2.00;;
72053;SDS011;59918;51.280;7.950;2024-02-16T08:44:10;3.70;;;2.25;;
72053;SDS011;59918;51.280;7.950;2024-02-16T08:46:36;6.07;;;2.03;;
72053;SDS011;59918;51.280;7.950;2024-02-16T08:49:02;2.25;;;2.03;;
72053;SDS011;59918;51.280;7.950;2024-02-16T08:51:27;3.60;;;1.85;;
72053;SDS011;59918;51.280;7.950;2024-02-16T08:53:52;4.78;;;2.00;;
72053;SDS011;59918;51.280;7.950;2024-02-16T08:56:18;3.58;;;2.22;;
72053;SDS011;59918;51.280;7.950;2024-02-16T08:58:43;3.00;;;2.38;;
72053;SDS011;59918;51.280;7.950;2024-02-16T09:01:08;3.70;;;2.03;;
72053;SDS011;59918;51.280;7.950;2024-02-16T09:03:33;3.97;;;2.00;;
72053;SDS011;59918;51.280;7.950;2024-02-16T09:05:59;5.03;;;1.70;;
72053;SDS011;59918;51.280;7.950;2024-02-16T09:08:24;3.10;;;1.80;;
72053;SDS011;59918;51.280;7.950;2024-02-16T09:10:49;2.45;;;2.15;;
72053;SDS011;59918;51.280;7.950;2024-02-16T09:13:14;3.35;;;2.10;;
72053;SDS011;59918;51.280;7.950;2024-02-16T09:15:40;3.10;;;1.70;;
72053;SDS011;59918;51.280;7.950;2024-02-16T09:18:05;2.95;;;1.90;;
72053;SDS011;59918;51.280;7.950;2024-02-16T09:20:30;5.43;;;2.05;;
72053;SDS011;59918;51.280;7.950;2024-02-16T09:22:55;2.83;;;1.80;;
72053;SDS011;59918;51.280;7.950;2024-02-16T09:25:21;4.90;;;2.17;;
72053;SDS011;59918;51.280;7.950;2024-02-16T09:27:46;3.75;;;1.92;;
72053;SDS011;59918;51.280;7.950;2024-02-16T09:30:11;2.67;;;1.90;;
72053;SDS011;59918;51.280;7.950;2024-02-16T09:32:40;3.03;;;1.98;;
72053;SDS011;59918;51.280;7.950;2024-02-16T09:35:05;4.18;;;1.83;;
72053;SDS011;59918;51.280;7.950;2024-02-16T09:37:31;2.95;;;2.08;;
72053;SDS011;59918;51.280;7.950;2024-02-16T09:39:56;4.45;;;2.10;;
72053;SDS011;59918;51.280;7.950;2024-02-16T09:42:23;4.60;;;2.20;;
72053;SDS011;59918;51.280;7.950;2024-02-16T09:44:51;4.65;;;1.92;;
72053;SDS011;59918;51.280;7.950;2024-02-16T09:47:19;3.72;;;1.85;;
72053;SDS011;59918;51.280;7.950;2024-02-16T09:49:47;3.00;;;1.98;;
72053;SDS011;59918;51.280;7.950;2024-02-16T09:52:13;4.53;;;2.03;;
72053;SDS011;59918;51.280;7.950;2024-02-16T09:54:38;3.95;;;2.47;;
72053;SDS011;59918;51.280;7.950;2024-02-16T09:57:03;4.30;;;2.30;;
72053;SDS011;59918;51.280;7.950;2024-02-16T09:59:29;4.10;;;1.92;;
72053;SDS011;59918;51.280;7.950;2024-02-16T10:02:03;5.32;;;1.77;;
72053;SDS011;59918;51.280;7.950;2024-02-16T10:04:29;3.92;;;1.98;;
72053;SDS011;59918;51.280;7.950;2024-02-16T10:06:56;5.30;;;2.00;;
72053;SDS011;59918;51.280;7.950;2024-02-16T10:09:24;4.35;;;2.28;;
72053;SDS011;59918;51.280;7.950;2024-02-16T10:11:51;7.43;;;2.28;;
72053;SDS011;59918;51.280;7.950;2024-02-16T10:14:16;5.55;;;2.03;;
72053;SDS011;59918;51.280;7.950;2024-02-16T10:16:44;4.63;;;2.03;;
72053;SDS011;59918;51.280;7.950;2024-02-16T10:19:09;4.65;;;1.83;;
72053;SDS011;59918;51.280;7.950;2024-02-16T10:21:34;4.93;;;2.97;;
72053;SDS011;59918;51.280;7.950;2024-02-16T10:24:01;3.67;;;1.63;;
72053;SDS011;59918;51.280;7.950;2024-02-16T10:26:28;7.40;;;2.10;;
72053;SDS011;59918;51.280;7.950;2024-02-16T10:28:54;3.92;;;2.05;;
72053;SDS011;59918;51.280;7.950;2024-02-16T10:31:21;3.70;;;2.00;;
72053;SDS011;59918;51.280;7.950;2024-02-16T10:33:47;6.03;;;1.98;;
72053;SDS011;59918;51.280;7.950;2024-02-16T10:36:13;3.80;;;2.05;;
72053;SDS011;59918;51.280;7.950;2024-02-16T10:38:39;4.28;;;1.95;;
72053;SDS011;59918;51.280;7.950;2024-02-16T10:41:05;7.07;;;2.72;;
72053;SDS011;59918;51.280;7.950;2024-02-16T10:43:32;3.38;;;2.30;;
72053;SDS011;59918;51.280;7.950;2024-02-16T10:45:57;3.88;;;2.15;;
72053;SDS011;59918;51.280;7.950;2024-02-16T10:48:23;6.80;;;1.80;;
72053;SDS011;59918;51.280;7.950;2024-02-16T10:50:49;6.43;;;2.25;;
72053;SDS011;59918;51.280;7.950;2024-02-16T10:55:50;4.47;;;2.40;;
72053;SDS011;59918;51.280;7.950;2024-02-16T10:58:16;4.28;;;2.45;;
72053;SDS011;59918;51.280;7.950;2024-02-16T11:00:51;3.95;;;2.03;;
72053;SDS011;59918;51.280;7.950;2024-02-16T11:03:26;4.80;;;2.83;;
72053;SDS011;59918;51.280;7.950;2024-02-16T11:08:18;5.90;;;2.10;;
72053;SDS011;59918;51.280;7.950;2024-02-16T11:10:55;4.07;;;2.15;;
72053;SDS011;59918;51.280;7.950;2024-02-16T11:13:24;5.57;;;1.90;;
72053;SDS011;59918;51.280;7.950;2024-02-16T11:15:55;3.10;;;2.00;;
72053;SDS011;59918;51.280;7.950;2024-02-16T11:18:25;8.07;;;2.67;;
72053;SDS011;59918;51.280;7.950;2024-02-16T11:20:50;4.32;;;2.80;;
72053;SDS011;59918;51.280;7.950;2024-02-16T11:23:17;7.38;;;2.30;;
72053;SDS011;59918;51.280;7.950;2024-02-16T11:25:49;6.07;;;2.45;;
72053;SDS011;59918;51.280;7.950;2024-02-16T11:28:15;2.95;;;2.28;;
72053;SDS011;59918;51.280;7.950;2024-02-16T11:30:41;3.22;;;2.38;;
72053;SDS011;59918;51.280;7.950;2024-02-16T11:33:10;9.00;;;3.00;;
72053;SDS011;59918;51.280;7.950;2024-02-16T11:35:35;6.03;;;2.55;;
72053;SDS011;59918;51.280;7.950;2024-02-16T11:38:01;6.85;;;2.85;;
72053;SDS011;59918;51.280;7.950;2024-02-16T11:40:26;5.07;;;2.50;;
72053;SDS011;59918;51.280;7.950;2024-02-16T11:42:57;7.22;;;2.33;;
72053;SDS011;59918;51.280;7.950;2024-02-16T11:45:23;6.15;;;2.72;;
72053;SDS011;59918;51.280;7.950;2024-02-16T11:47:48;7.53;;;3.20;;
72053;SDS011;59918;51.280;7.950;2024-02-16T11:50:13;6.45;;;2.90;;
72053;SDS011;59918;51.280;7.950;2024-02-16T11:52:39;7.93;;;2.22;;
72053;SDS011;59918;51.280;7.950;2024-02-16T11:55:07;6.70;;;2.63;;
72053;SDS011;59918;51.280;7.950;2024-02-16T11:57:35;6.40;;;2.70;;
72053;SDS011;59918;51.280;7.950;2024-02-16T12:00:02;7.28;;;2.50;;
72053;SDS011;59918;51.280;7.950;2024-02-16T12:02:28;7.22;;;2.90;;
72053;SDS011;59918;51.280;7.950;2024-02-16T12:05:00;8.35;;;2.65;;
72053;SDS011;59918;51.280;7.950;2024-02-16T12:07:26;4.72;;;2.10;;
72053;SDS011;59918;51.280;7.950;2024-02-16T12:09:58;4.88;;;2.50;;
72053;SDS011;59918;51.280;7.950;2024-02-16T12:12:24;3.83;;;2.42;;
72053;SDS011;59918;51.280;7.950;2024-02-16T12:14:50;6.63;;;2.60;;
72053;SDS011;59918;51.280;7.950;2024-02-16T12:17:15;4.47;;;2.38;;
72053;SDS011;59918;51.280;7.950;2024-02-16T12:19:44;3.30;;;2.00;;
72053;SDS011;59918;51.280;7.950;2024-02-16T12:22:21;6.32;;;2.42;;
72053;SDS011;59918;51.280;7.950;2024-02-16T12:24:46;2.65;;;2.10;;
72053;SDS011;59918;51.280;7.950;2024-02-16T12:27:13;5.20;;;2.60;;
72053;SDS011;59918;51.280;7.950;2024-02-16T12:29:38;5.20;;;2.25;;
72053;SDS011;59918;51.280;7.950;2024-02-16T12:32:04;3.95;;;2.38;;
72053;SDS011;59918;51.280;7.950;2024-02-16T12:34:30;8.32;;;2.45;;
72053;SDS011;59918;51.280;7.950;2024-02-16T12:36:55;3.78;;;2.15;;
72053;SDS011;59918;51.280;7.950;2024-02-16T12:39:20;5.32;;;2.50;;
72053;SDS011;59918;51.280;7.950;2024-02-16T12:41:48;4.32;;;2.42;;
72053;SDS011;59918;51.280;7.950;2024-02-16T12:44:13;8.35;;;2.80;;
72053;SDS011;59918;51.280;7.950;2024-02-16T12:46:38;3.03;;;2.03;;
72053;SDS011;59918;51.280;7.950;2024-02-16T12:49:03;7.07;;;2.45;;
72053;SDS011;59918;51.280;7.950;2024-02-16T12:51:31;6.28;;;3.03;;
72053;SDS011;59918;51.280;7.950;2024-02-16T12:53:56;5.22;;;2.75;;
72053;SDS011;59918;51.280;7.950;2024-02-16T12:56:22;6.53;;;2.47;;
72053;SDS011;59918;51.280;7.950;2024-02-16T12:58:47;5.22;;;2.35;;
72053;SDS011;59918;51.280;7.950;2024-02-16T13:01:12;8.40;;;2.28;;
72053;SDS011;59918;51.280;7.950;2024-02-16T13:03:37;4.35;;;2.53;;
72053;SDS011;59918;51.280;7.950;2024-02-16T13:06:03;4.55;;;2.50;;
72053;SDS011;59918;51.280;7.950;2024-02-16T13:08:29;5.03;;;2.42;;
72053;SDS011;59918;51.280;7.950;2024-02-16T13:10:55;6.15;;;2.63;;
72053;SDS011;59918;51.280;7.950;2024-02-16T13:13:21;6.18;;;2.40;;
72053;SDS011;59918;51.280;7.950;2024-02-16T13:15:46;3.88;;;2.47;;
72053;SDS011;59918;51.280;7.950;2024-02-16T13:18:12;4.95;;;2.70;;
72053;SDS011;59918;51.280;7.950;2024-02-16T13:20:37;4.20;;;2.40;;
72053;SDS011;59918;51.280;7.950;2024-02-16T13:23:02;4.10;;;2.33;;
72053;SDS011;59918;51.280;7.950;2024-02-16T13:25:28;4.40;;;2.42;;
72053;SDS011;59918;51.280;7.950;2024-02-16T13:27:53;4.93;;;2.58;;
72053;SDS011;59918;51.280;7.950;2024-02-16T13:30:18;3.30;;;2.50;;
72053;SDS011;59918;51.280;7.950;2024-02-16T13:32:43;4.25;;;2.65;;
72053;SDS011;59918;51.280;7.950;2024-02-16T13:35:09;7.20;;;2.90;;
72053;SDS011;59918;51.280;7.950;2024-02-16T13:37:34;6.28;;;2.67;;
72053;SDS011;59918;51.280;7.950;2024-02-16T13:39:59;4.75;;;2.53;;
72053;SDS011;59918;51.280;7.950;2024-02-16T13:42:24;6.60;;;2.90;;
72053;SDS011;59918;51.280;7.950;2024-02-16T13:44:50;5.47;;;2.75;;
72053;SDS011;59918;51.280;7.950;2024-02-16T13:47:15;5.47;;;2.70;;
72053;SDS011;59918;51.280;7.950;2024-02-16T13:49:40;8.18;;;3.08;;
72053;SDS011;59918;51.280;7.950;2024-02-16T13:52:05;4.47;;;2.50;;
72053;SDS011;59918;51.280;7.950;2024-02-16T13:54:31;5.60;;;2.65;;
72053;SDS011;59918;51.280;7.950;2024-02-16T13:56:56;3.88;;;2.80;;
72053;SDS011;59918;51.280;7.950;2024-02-16T13:59:21;6.28;;;2.50;;
72053;SDS011;59918;51.280;7.950;2024-02-16T14:01:47;5.85;;;2.90;;
72053;SDS011;59918;51.280;7.950;2024-02-16T14:04:13;5.10;;;3.10;;
72053;SDS011;59918;51.280;7.950;2024-02-16T14:06:39;3.78;;;2.45;;
72053;SDS011;59918;51.280;7.950;2024-02-16T14:09:04;4.43;;;2.70;;
72053;SDS011;59918;51.280;7.950;2024-02-16T14:11:29;10.18;;;4.03;;
72053;SDS011;59918;51.280;7.950;2024-02-16T14:13:54;4.18;;;2.85;;
72053;SDS011;59918;51.280;7.950;2024-02-16T14:16:20;7.90;;;3.03;;
72053;SDS011;59918;51.280;7.950;2024-02-16T14:18:45;4.28;;;2.85;;
72053;SDS011;59918;51.280;7.950;2024-02-16T14:21:10;4.80;;;3.65;;
72053;SDS011;59918;51.280;7.950;2024-02-16T14:23:36;5.88;;;3.17;;
72053;SDS011;59918;51.280;7.950;2024-02-16T14:26:01;7.57;;;3.45;;
72053;SDS011;59918;51.280;7.950;2024-02-16T14:28:26;7.75;;;4.10;;
72053;SDS011;59918;51.280;7.950;2024-02-16T14:30:51;11.52;;;4.45;;
72053;SDS011;59918;51.280;7.950;2024-02-16T14:33:17;10.05;;;4.00;;
72053;SDS011;59918;51.280;7.950;2024-02-16T14:35:42;6.65;;;3.88;;
72053;SDS011;59918;51.280;7.950;2024-02-16T14:38:08;6.97;;;4.15;;
72053;SDS011;59918;51.280;7.950;2024-02-16T14:40:33;5.13;;;3.58;;
72053;SDS011;59918;51.280;7.950;2024-02-16T14:42:59;5.45;;;4.18;;